sensor_id;sensor_type;location;lat;lon;timestamp;P1;durP1;ratioP1;P2;durP2;ratioP2
78774;SDS011;68119;43.398;3.676;2023-05-15T00:01:31;6.82;;;4.13;;
78774;SDS011;68119;43.398;3.676;2023-05-15T00:03:57;6.20;;;4.40;;
78774;SDS011;68119;43.398;3.676;2023-05-15T00:06:23;6.05;;;4.25;;
78774;SDS011;68119;43.398;3.676;2023-05-15T00:08:53;6.47;;;4.20;;
78774;SDS011;68119;43.398;3.676;2023-05-15T00:11:19;5.45;;;4.15;;
78774;SDS011;68119;43.398;3.676;2023-05-15T00:13:47;5.95;;;4.18;;
78774;SDS011;68119;43.398;3.676;2023-05-15T00:16:13;5.70;;;4.30;;
78774;SDS011;68119;43.398;3.676;2023-05-15T00:18:40;7.03;;;4.65;;
78774;SDS011;68119;43.398;3.676;2023-05-15T00:21:06;6.10;;;4.50;;
78774;SDS011;68119;43.398;3.676;2023-05-15T00:23:32;5.88;;;4.47;;
78774;SDS011;68119;43.398;3.676;2023-05-15T00:25:58;7.13;;;4.30;;
78774;SDS011;68119;43.398;3.676;2023-05-15T00:28:30;7.47;;;4.45;;
78774;SDS011;68119;43.398;3.676;2023-05-15T00:33:24;4.97;;;3.85;;
78774;SDS011;68119;43.398;3.676;2023-05-15T00:35:52;5.57;;;4.20;;
78774;SDS011;68119;43.398;3.676;2023-05-15T00:38:19;5.72;;;4.30;;
78774;SDS011;68119;43.398;3.676;2023-05-15T00:40:48;5.45;;;4.65;;
78774;SDS011;68119;43.398;3.676;2023-05-15T00:43:16;7.57;;;4.80;;
78774;SDS011;68119;43.398;3.676;2023-05-15T00:45:43;5.57;;;4.40;;
78774;SDS011;68119;43.398;3.676;2023-05-15T00:48:15;7.63;;;4.95;;
78774;SDS011;68119;43.398;3.676;2023-05-15T00:50:41;5.82;;;4.88;;
78774;SDS011;68119;43.398;3.676;2023-05-15T00:53:13;7.88;;;4.70;;
78774;SDS011;68119;43.398;3.676;2023-05-15T00:55:39;8.00;;;4.80;;
78774;SDS011;68119;43.398;3.676;2023-05-15T00:58:09;6.55;;;4.80;;
78774;SDS011;68119;43.398;3.676;2023-05-15T01:00:41;6.85;;;4.53;;
78774;SDS011;68119;43.398;3.676;2023-05-15T01:03:08;6.65;;;5.25;;
78774;SDS011;68119;43.398;3.676;2023-05-15T01:05:39;6.70;;;4.90;;
78774;SDS011;68119;43.398;3.676;2023-05-15T01:10:37;6.65;;;4.85;;
78774;SDS011;68119;43.398;3.676;2023-05-15T01:13:07;6.95;;;5.13;;
78774;SDS011;68119;43.398;3.676;2023-05-15T01:15:34;10.32;;;5.97;;
78774;SDS011;68119;43.398;3.676;2023-05-15T01:18:01;7.00;;;5.25;;
78774;SDS011;68119;43.398;3.676;2023-05-15T01:20:27;7.72;;;5.15;;
78774;SDS011;68119;43.398;3.676;2023-05-15T01:28:21;7.18;;;5.28;;
78774;SDS011;68119;43.398;3.676;2023-05-15T01:30:50;8.07;;;5.28;;
78774;SDS011;68119;43.398;3.676;2023-05-15T01:33:27;8.10;;;4.95;;
78774;SDS011;68119;43.398;3.676;2023-05-15T01:40:55;6.00;;;5.10;;
78774;SDS011;68119;43.398;3.676;2023-05-15T01:43:23;8.70;;;5.57;;
78774;SDS011;68119;43.398;3.676;2023-05-15T01:45:52;7.63;;;5.10;;
78774;SDS011;68119;43.398;3.676;2023-05-15T01:48:19;7.60;;;5.40;;
78774;SDS011;68119;43.398;3.676;2023-05-15T01:50:46;8.10;;;5.30;;
78774;SDS011;68119;43.398;3.676;2023-05-15T01:53:13;6.40;;;5.28;;
78774;SDS011;68119;43.398;3.676;2023-05-15T01:55:42;9.13;;;5.80;;
78774;SDS011;68119;43.398;3.676;2023-05-15T01:58:08;7.38;;;5.22;;
78774;SDS011;68119;43.398;3.676;2023-05-15T02:00:37;7.07;;;5.20;;
78774;SDS011;68119;43.398;3.676;2023-05-15T02:03:09;9.63;;;5.45;;
78774;SDS011;68119;43.398;3.676;2023-05-15T02:05:35;7.97;;;5.40;;
78774;SDS011;68119;43.398;3.676;2023-05-15T02:08:08;7.00;;;5.50;;
78774;SDS011;68119;43.398;3.676;2023-05-15T02:10:36;9.68;;;6.13;;
78774;SDS011;68119;43.398;3.676;2023-05-15T02:13:06;9.30;;;5.78;;
78774;SDS011;68119;43.398;3.676;2023-05-15T02:15:36;8.52;;;5.80;;
78774;SDS011;68119;43.398;3.676;2023-05-15T02:18:05;8.80;;;5.75;;
78774;SDS011;68119;43.398;3.676;2023-05-15T02:20:31;9.27;;;5.35;;
78774;SDS011;68119;43.398;3.676;2023-05-15T02:23:02;8.63;;;5.15;;
78774;SDS011;68119;43.398;3.676;2023-05-15T02:25:32;8.95;;;5.90;;
78774;SDS011;68119;43.398;3.676;2023-05-15T02:28:04;6.97;;;5.57;;
78774;SDS011;68119;43.398;3.676;2023-05-15T02:30:40;9.45;;;5.88;;
78774;SDS011;68119;43.398;3.676;2023-05-15T02:33:12;7.38;;;5.40;;
78774;SDS011;68119;43.398;3.676;2023-05-15T02:38:11;12.35;;;5.47;;
78774;SDS011;68119;43.398;3.676;2023-05-15T02:40:41;10.98;;;5.65;;
78774;SDS011;68119;43.398;3.676;2023-05-15T02:43:09;8.93;;;5.30;;
78774;SDS011;68119;43.398;3.676;2023-05-15T02:45:38;9.30;;;6.13;;
78774;SDS011;68119;43.398;3.676;2023-05-15T02:48:06;6.47;;;5.22;;
78774;SDS011;68119;43.398;3.676;2023-05-15T02:50:35;9.75;;;5.97;;
78774;SDS011;68119;43.398;3.676;2023-05-15T02:53:05;10.23;;;6.20;;
78774;SDS011;68119;43.398;3.676;2023-05-15T02:55:37;8.20;;;6.07;;
78774;SDS011;68119;43.398;3.676;2023-05-15T02:58:06;8.27;;;5.70;;
78774;SDS011;68119;43.398;3.676;2023-05-15T03:00:37;8.75;;;6.43;;
78774;SDS011;68119;43.398;3.676;2023-05-15T03:03:03;7.88;;;5.90;;
78774;SDS011;68119;43.398;3.676;2023-05-15T03:05:32;8.57;;;6.32;;
78774;SDS011;68119;43.398;3.676;2023-05-15T03:07:59;8.57;;;6.07;;
78774;SDS011;68119;43.398;3.676;2023-05-15T03:10:25;10.55;;;5.95;;
78774;SDS011;68119;43.398;3.676;2023-05-15T03:12:51;8.40;;;5.82;;
78774;SDS011;68119;43.398;3.676;2023-05-15T03:15:17;10.60;;;6.22;;
78774;SDS011;68119;43.398;3.676;2023-05-15T03:17:46;7.80;;;5.93;;
78774;SDS011;68119;43.398;3.676;2023-05-15T03:20:15;7.57;;;6.20;;
78774;SDS011;68119;43.398;3.676;2023-05-15T03:22:43;11.38;;;6.47;;
78774;SDS011;68119;43.398;3.676;2023-05-15T03:25:12;10.45;;;6.40;;
78774;SDS011;68119;43.398;3.676;2023-05-15T03:27:40;8.18;;;6.40;;
78774;SDS011;68119;43.398;3.676;2023-05-15T03:30:07;11.60;;;6.00;;
78774;SDS011;68119;43.398;3.676;2023-05-15T03:32:36;9.13;;;6.13;;
78774;SDS011;68119;43.398;3.676;2023-05-15T03:35:02;10.25;;;6.63;;
78774;SDS011;68119;43.398;3.676;2023-05-15T03:37:31;10.63;;;6.60;;
78774;SDS011;68119;43.398;3.676;2023-05-15T03:39:57;10.77;;;6.35;;
78774;SDS011;68119;43.398;3.676;2023-05-15T03:42:26;11.10;;;6.32;;
78774;SDS011;68119;43.398;3.676;2023-05-15T03:44:53;8.57;;;6.57;;
78774;SDS011;68119;43.398;3.676;2023-05-15T03:47:22;9.40;;;6.80;;
78774;SDS011;68119;43.398;3.676;2023-05-15T03:49:50;16.33;;;6.18;;
78774;SDS011;68119;43.398;3.676;2023-05-15T03:52:19;8.85;;;5.95;;
78774;SDS011;68119;43.398;3.676;2023-05-15T03:54:48;9.85;;;6.50;;
78774;SDS011;68119;43.398;3.676;2023-05-15T03:59:48;8.77;;;5.93;;
78774;SDS011;68119;43.398;3.676;2023-05-15T04:02:23;8.68;;;6.55;;
78774;SDS011;68119;43.398;3.676;2023-05-15T04:04:59;9.73;;;6.07;;
78774;SDS011;68119;43.398;3.676;2023-05-15T04:07:35;14.32;;;6.82;;
78774;SDS011;68119;43.398;3.676;2023-05-15T04:10:14;10.63;;;7.03;;
78774;SDS011;68119;43.398;3.676;2023-05-15T04:15:24;9.73;;;6.20;;
78774;SDS011;68119;43.398;3.676;2023-05-15T04:17:57;10.25;;;7.38;;
78774;SDS011;68119;43.398;3.676;2023-05-15T04:20:24;10.15;;;6.57;;
78774;SDS011;68119;43.398;3.676;2023-05-15T04:22:50;9.43;;;6.93;;
78774;SDS011;68119;43.398;3.676;2023-05-15T04:25:20;9.50;;;6.28;;
78774;SDS011;68119;43.398;3.676;2023-05-15T04:27:49;12.40;;;7.00;;
78774;SDS011;68119;43.398;3.676;2023-05-15T04:30:17;10.88;;;7.32;;
78774;SDS011;68119;43.398;3.676;2023-05-15T04:32:48;10.40;;;7.60;;
78774;SDS011;68119;43.398;3.676;2023-05-15T04:35:15;9.65;;;6.43;;
78774;SDS011;68119;43.398;3.676;2023-05-15T04:37:47;9.15;;;6.95;;
78774;SDS011;68119;43.398;3.676;2023-05-15T04:40:13;9.10;;;6.40;;
78774;SDS011;68119;43.398;3.676;2023-05-15T04:42:40;11.13;;;6.85;;
78774;SDS011;68119;43.398;3.676;2023-05-15T04:45:11;11.30;;;6.60;;
78774;SDS011;68119;43.398;3.676;2023-05-15T04:47:41;11.35;;;7.10;;
78774;SDS011;68119;43.398;3.676;2023-05-15T04:50:07;14.35;;;6.70;;
78774;SDS011;68119;43.398;3.676;2023-05-15T04:52:37;10.95;;;7.25;;
78774;SDS011;68119;43.398;3.676;2023-05-15T04:55:03;9.20;;;7.07;;
78774;SDS011;68119;43.398;3.676;2023-05-15T04:57:29;8.75;;;6.60;;
78774;SDS011;68119;43.398;3.676;2023-05-15T04:59:56;10.80;;;7.15;;
78774;SDS011;68119;43.398;3.676;2023-05-15T05:02:25;12.55;;;7.55;;
78774;SDS011;68119;43.398;3.676;2023-05-15T05:04:51;11.48;;;7.38;;
78774;SDS011;68119;43.398;3.676;2023-05-15T05:07:20;11.45;;;6.82;;
78774;SDS011;68119;43.398;3.676;2023-05-15T05:09:46;9.18;;;7.30;;
78774;SDS011;68119;43.398;3.676;2023-05-15T05:12:22;8.40;;;7.25;;
78774;SDS011;68119;43.398;3.676;2023-05-15T05:14:54;8.63;;;6.35;;
78774;SDS011;68119;43.398;3.676;2023-05-15T05:17:20;11.98;;;7.20;;
78774;SDS011;68119;43.398;3.676;2023-05-15T05:19:47;8.25;;;7.20;;
78774;SDS011;68119;43.398;3.676;2023-05-15T05:22:15;9.88;;;7.00;;
78774;SDS011;68119;43.398;3.676;2023-05-15T05:24:48;8.85;;;7.10;;
78774;SDS011;68119;43.398;3.676;2023-05-15T05:27:20;9.73;;;7.15;;
78774;SDS011;68119;43.398;3.676;2023-05-15T05:32:22;12.70;;;7.78;;
78774;SDS011;68119;43.398;3.676;2023-05-15T05:34:49;8.70;;;7.05;;
78774;SDS011;68119;43.398;3.676;2023-05-15T05:37:15;10.68;;;7.18;;
78774;SDS011;68119;43.398;3.676;2023-05-15T05:39:41;9.15;;;7.10;;
78774;SDS011;68119;43.398;3.676;2023-05-15T05:42:07;11.82;;;7.63;;
78774;SDS011;68119;43.398;3.676;2023-05-15T05:44:36;9.50;;;7.00;;
78774;SDS011;68119;43.398;3.676;2023-05-15T05:47:02;9.30;;;6.15;;
78774;SDS011;68119;43.398;3.676;2023-05-15T05:49:36;12.10;;;7.95;;
78774;SDS011;68119;43.398;3.676;2023-05-15T05:52:05;11.50;;;7.43;;
78774;SDS011;68119;43.398;3.676;2023-05-15T05:54:31;11.05;;;8.40;;
78774;SDS011;68119;43.398;3.676;2023-05-15T05:56:58;10.98;;;7.75;;
78774;SDS011;68119;43.398;3.676;2023-05-15T05:59:24;13.10;;;8.00;;
78774;SDS011;68119;43.398;3.676;2023-05-15T06:01:51;9.10;;;7.78;;
78774;SDS011;68119;43.398;3.676;2023-05-15T06:04:20;8.98;;;6.40;;
78774;SDS011;68119;43.398;3.676;2023-05-15T06:06:49;12.02;;;8.38;;
78774;SDS011;68119;43.398;3.676;2023-05-15T06:09:21;11.90;;;8.38;;
78774;SDS011;68119;43.398;3.676;2023-05-15T06:11:50;12.45;;;7.78;;
78774;SDS011;68119;43.398;3.676;2023-05-15T06:14:18;13.80;;;7.47;;
78774;SDS011;68119;43.398;3.676;2023-05-15T06:16:47;11.40;;;7.70;;
78774;SDS011;68119;43.398;3.676;2023-05-15T06:19:16;10.43;;;7.88;;
78774;SDS011;68119;43.398;3.676;2023-05-15T06:21:45;12.50;;;8.30;;
78774;SDS011;68119;43.398;3.676;2023-05-15T06:24:11;10.40;;;7.85;;
78774;SDS011;68119;43.398;3.676;2023-05-15T06:26:37;10.23;;;7.65;;
78774;SDS011;68119;43.398;3.676;2023-05-15T06:29:05;12.50;;;8.07;;
78774;SDS011;68119;43.398;3.676;2023-05-15T06:31:34;11.73;;;7.80;;
78774;SDS011;68119;43.398;3.676;2023-05-15T06:34:05;10.13;;;7.72;;
78774;SDS011;68119;43.398;3.676;2023-05-15T06:36:34;10.20;;;6.95;;
78774;SDS011;68119;43.398;3.676;2023-05-15T06:39:00;10.43;;;7.65;;
78774;SDS011;68119;43.398;3.676;2023-05-15T06:41:30;11.35;;;8.05;;
78774;SDS011;68119;43.398;3.676;2023-05-15T06:43:56;9.38;;;6.95;;
78774;SDS011;68119;43.398;3.676;2023-05-15T06:46:28;12.25;;;7.32;;
78774;SDS011;68119;43.398;3.676;2023-05-15T06:48:54;10.98;;;7.68;;
78774;SDS011;68119;43.398;3.676;2023-05-15T06:51:20;10.50;;;7.43;;
78774;SDS011;68119;43.398;3.676;2023-05-15T06:53:49;12.30;;;8.10;;
78774;SDS011;68119;43.398;3.676;2023-05-15T06:56:17;9.55;;;7.63;;
78774;SDS011;68119;43.398;3.676;2023-05-15T06:58:44;13.18;;;7.13;;
78774;SDS011;68119;43.398;3.676;2023-05-15T07:01:13;9.48;;;6.82;;
78774;SDS011;68119;43.398;3.676;2023-05-15T07:03:39;11.02;;;7.30;;
78774;SDS011;68119;43.398;3.676;2023-05-15T07:06:07;11.90;;;7.65;;
78774;SDS011;68119;43.398;3.676;2023-05-15T07:08:33;9.75;;;7.40;;
78774;SDS011;68119;43.398;3.676;2023-05-15T07:11:02;11.48;;;8.68;;
78774;SDS011;68119;43.398;3.676;2023-05-15T07:13:33;9.68;;;7.03;;
78774;SDS011;68119;43.398;3.676;2023-05-15T07:15:59;8.50;;;7.38;;
78774;SDS011;68119;43.398;3.676;2023-05-15T07:18:26;10.48;;;7.07;;
78774;SDS011;68119;43.398;3.676;2023-05-15T07:20:52;13.40;;;8.07;;
78774;SDS011;68119;43.398;3.676;2023-05-15T07:23:24;11.68;;;8.23;;
78774;SDS011;68119;43.398;3.676;2023-05-15T07:25:53;13.07;;;7.70;;
78774;SDS011;68119;43.398;3.676;2023-05-15T07:28:19;10.88;;;7.78;;
78774;SDS011;68119;43.398;3.676;2023-05-15T07:30:48;12.15;;;7.95;;
78774;SDS011;68119;43.398;3.676;2023-05-15T07:33:14;10.68;;;7.82;;
78774;SDS011;68119;43.398;3.676;2023-05-15T07:35:46;14.43;;;8.75;;
78774;SDS011;68119;43.398;3.676;2023-05-15T07:38:16;13.23;;;9.00;;
78774;SDS011;68119;43.398;3.676;2023-05-15T07:40:44;13.23;;;8.77;;
78774;SDS011;68119;43.398;3.676;2023-05-15T07:43:10;11.93;;;8.35;;
78774;SDS011;68119;43.398;3.676;2023-05-15T07:45:39;10.90;;;8.45;;
78774;SDS011;68119;43.398;3.676;2023-05-15T07:50:46;11.35;;;8.38;;
78774;SDS011;68119;43.398;3.676;2023-05-15T07:53:17;12.60;;;8.45;;
78774;SDS011;68119;43.398;3.676;2023-05-15T07:55:44;12.10;;;8.77;;
78774;SDS011;68119;43.398;3.676;2023-05-15T07:58:13;11.73;;;8.35;;
78774;SDS011;68119;43.398;3.676;2023-05-15T08:00:43;10.90;;;8.00;;
78774;SDS011;68119;43.398;3.676;2023-05-15T08:03:10;10.25;;;7.72;;
78774;SDS011;68119;43.398;3.676;2023-05-15T08:05:41;13.32;;;8.10;;
78774;SDS011;68119;43.398;3.676;2023-05-15T08:08:10;14.18;;;7.60;;
78774;SDS011;68119;43.398;3.676;2023-05-15T08:10:39;10.32;;;6.88;;
78774;SDS011;68119;43.398;3.676;2023-05-15T08:13:08;10.60;;;7.82;;
78774;SDS011;68119;43.398;3.676;2023-05-15T08:15:37;16.10;;;7.95;;
78774;SDS011;68119;43.398;3.676;2023-05-15T08:18:07;11.20;;;7.10;;
78774;SDS011;68119;43.398;3.676;2023-05-15T08:20:37;9.88;;;7.68;;
78774;SDS011;68119;43.398;3.676;2023-05-15T08:23:06;9.40;;;6.82;;
78774;SDS011;68119;43.398;3.676;2023-05-15T08:25:35;9.63;;;7.07;;
78774;SDS011;68119;43.398;3.676;2023-05-15T08:28:04;9.18;;;6.78;;
78774;SDS011;68119;43.398;3.676;2023-05-15T08:30:33;9.60;;;7.32;;
78774;SDS011;68119;43.398;3.676;2023-05-15T08:33:00;9.55;;;6.68;;
78774;SDS011;68119;43.398;3.676;2023-05-15T08:35:26;10.30;;;7.53;;
78774;SDS011;68119;43.398;3.676;2023-05-15T08:37:57;10.30;;;7.40;;
78774;SDS011;68119;43.398;3.676;2023-05-15T08:40:26;13.45;;;7.43;;
78774;SDS011;68119;43.398;3.676;2023-05-15T08:42:53;11.70;;;6.43;;
78774;SDS011;68119;43.398;3.676;2023-05-15T08:45:20;11.30;;;7.45;;
78774;SDS011;68119;43.398;3.676;2023-05-15T08:47:49;11.02;;;6.65;;
78774;SDS011;68119;43.398;3.676;2023-05-15T08:50:17;9.05;;;7.10;;
78774;SDS011;68119;43.398;3.676;2023-05-15T08:52:46;9.95;;;7.15;;
78774;SDS011;68119;43.398;3.676;2023-05-15T08:55:18;10.13;;;6.90;;
78774;SDS011;68119;43.398;3.676;2023-05-15T08:57:48;8.65;;;6.40;;
78774;SDS011;68119;43.398;3.676;2023-05-15T09:00:14;9.25;;;7.30;;
78774;SDS011;68119;43.398;3.676;2023-05-15T09:02:44;9.18;;;7.40;;
78774;SDS011;68119;43.398;3.676;2023-05-15T09:05:10;8.45;;;6.13;;
78774;SDS011;68119;43.398;3.676;2023-05-15T09:07:39;7.65;;;6.75;;
78774;SDS011;68119;43.398;3.676;2023-05-15T09:10:08;8.52;;;7.00;;
78774;SDS011;68119;43.398;3.676;2023-05-15T09:12:35;8.02;;;5.97;;
78774;SDS011;68119;43.398;3.676;2023-05-15T09:15:14;10.13;;;6.38;;
78774;SDS011;68119;43.398;3.676;2023-05-15T09:17:46;10.10;;;6.38;;
78774;SDS011;68119;43.398;3.676;2023-05-15T09:20:32;9.18;;;6.40;;
78774;SDS011;68119;43.398;3.676;2023-05-15T09:23:02;8.70;;;6.30;;
78774;SDS011;68119;43.398;3.676;2023-05-15T09:28:07;8.07;;;5.75;;
78774;SDS011;68119;43.398;3.676;2023-05-15T09:30:37;12.07;;;5.80;;
78774;SDS011;68119;43.398;3.676;2023-05-15T09:33:08;8.38;;;5.85;;
78774;SDS011;68119;43.398;3.676;2023-05-15T09:35:36;11.57;;;5.65;;
78774;SDS011;68119;43.398;3.676;2023-05-15T09:38:11;8.47;;;5.33;;
78774;SDS011;68119;43.398;3.676;2023-05-15T09:40:38;8.10;;;5.80;;
78774;SDS011;68119;43.398;3.676;2023-05-15T09:43:04;9.80;;;5.80;;
78774;SDS011;68119;43.398;3.676;2023-05-15T09:45:31;7.97;;;5.57;;
78774;SDS011;68119;43.398;3.676;2023-05-15T09:48:03;8.43;;;5.57;;
78774;SDS011;68119;43.398;3.676;2023-05-15T09:50:33;9.00;;;5.35;;
78774;SDS011;68119;43.398;3.676;2023-05-15T09:53:00;8.65;;;5.30;;
78774;SDS011;68119;43.398;3.676;2023-05-15T09:55:35;7.57;;;5.25;;
78774;SDS011;68119;43.398;3.676;2023-05-15T09:58:16;9.60;;;5.15;;
78774;SDS011;68119;43.398;3.676;2023-05-15T10:00:46;7.32;;;5.05;;
78774;SDS011;68119;43.398;3.676;2023-05-15T10:03:13;9.48;;;5.55;;
78774;SDS011;68119;43.398;3.676;2023-05-15T10:05:44;7.40;;;5.53;;
78774;SDS011;68119;43.398;3.676;2023-05-15T10:08:10;9.00;;;5.80;;
78774;SDS011;68119;43.398;3.676;2023-05-15T10:10:40;7.72;;;5.13;;
78774;SDS011;68119;43.398;3.676;2023-05-15T10:13:07;7.95;;;4.95;;
78774;SDS011;68119;43.398;3.676;2023-05-15T10:15:34;9.25;;;5.50;;
78774;SDS011;68119;43.398;3.676;2023-05-15T10:18:00;8.07;;;5.10;;
78774;SDS011;68119;43.398;3.676;2023-05-15T10:20:34;10.57;;;5.35;;
78774;SDS011;68119;43.398;3.676;2023-05-15T10:23:02;10.07;;;6.20;;
78774;SDS011;68119;43.398;3.676;2023-05-15T10:25:45;9.85;;;4.80;;
78774;SDS011;68119;43.398;3.676;2023-05-15T10:28:20;8.30;;;4.93;;
78774;SDS011;68119;43.398;3.676;2023-05-15T10:30:49;7.95;;;5.00;;
78774;SDS011;68119;43.398;3.676;2023-05-15T10:33:19;6.82;;;4.80;;
78774;SDS011;68119;43.398;3.676;2023-05-15T10:35:48;8.95;;;5.03;;
78774;SDS011;68119;43.398;3.676;2023-05-15T10:38:18;8.05;;;4.80;;
78774;SDS011;68119;43.398;3.676;2023-05-15T10:40:48;8.85;;;5.15;;
78774;SDS011;68119;43.398;3.676;2023-05-15T10:43:19;7.95;;;5.28;;
78774;SDS011;68119;43.398;3.676;2023-05-15T10:45:48;8.98;;;4.70;;
78774;SDS011;68119;43.398;3.676;2023-05-15T10:48:18;10.13;;;4.60;;
78774;SDS011;68119;43.398;3.676;2023-05-15T10:50:46;8.43;;;4.60;;
78774;SDS011;68119;43.398;3.676;2023-05-15T10:53:15;8.23;;;4.97;;
78774;SDS011;68119;43.398;3.676;2023-05-15T10:55:41;8.35;;;5.00;;
78774;SDS011;68119;43.398;3.676;2023-05-15T10:58:15;5.97;;;4.43;;
78774;SDS011;68119;43.398;3.676;2023-05-15T11:00:42;6.22;;;3.88;;
78774;SDS011;68119;43.398;3.676;2023-05-15T11:03:16;10.38;;;4.40;;
78774;SDS011;68119;43.398;3.676;2023-05-15T11:06:09;6.70;;;3.85;;
78774;SDS011;68119;43.398;3.676;2023-05-15T11:08:38;5.90;;;4.18;;
78774;SDS011;68119;43.398;3.676;2023-05-15T11:11:08;8.40;;;4.60;;
78774;SDS011;68119;43.398;3.676;2023-05-15T11:19:31;6.28;;;4.05;;
78774;SDS011;68119;43.398;3.676;2023-05-15T11:22:03;8.10;;;4.35;;
78774;SDS011;68119;43.398;3.676;2023-05-15T11:27:29;6.57;;;4.10;;
78774;SDS011;68119;43.398;3.676;2023-05-15T11:30:15;7.82;;;4.35;;
78774;SDS011;68119;43.398;3.676;2023-05-15T11:33:00;7.18;;;3.88;;
78774;SDS011;68119;43.398;3.676;2023-05-15T11:35:41;6.40;;;3.78;;
78774;SDS011;68119;43.398;3.676;2023-05-15T11:38:25;6.38;;;3.53;;
78774;SDS011;68119;43.398;3.676;2023-05-15T11:40:52;7.78;;;4.18;;
78774;SDS011;68119;43.398;3.676;2023-05-15T11:43:22;6.68;;;4.03;;
78774;SDS011;68119;43.398;3.676;2023-05-15T11:45:53;5.05;;;3.70;;
78774;SDS011;68119;43.398;3.676;2023-05-15T11:48:40;8.20;;;3.58;;
78774;SDS011;68119;43.398;3.676;2023-05-15T11:51:20;5.07;;;3.42;;
78774;SDS011;68119;43.398;3.676;2023-05-15T11:53:53;5.68;;;3.80;;
78774;SDS011;68119;43.398;3.676;2023-05-15T11:56:23;5.25;;;3.58;;
78774;SDS011;68119;43.398;3.676;2023-05-15T11:58:56;4.60;;;3.50;;
78774;SDS011;68119;43.398;3.676;2023-05-15T12:01:26;8.23;;;3.55;;
78774;SDS011;68119;43.398;3.676;2023-05-15T12:04:00;5.03;;;3.63;;
78774;SDS011;68119;43.398;3.676;2023-05-15T12:06:27;8.35;;;3.72;;
78774;SDS011;68119;43.398;3.676;2023-05-15T12:08:55;9.35;;;3.58;;
78774;SDS011;68119;43.398;3.676;2023-05-15T12:11:22;7.78;;;3.70;;
78774;SDS011;68119;43.398;3.676;2023-05-15T12:13:51;5.90;;;3.45;;
78774;SDS011;68119;43.398;3.676;2023-05-15T12:16:18;4.72;;;3.20;;
78774;SDS011;68119;43.398;3.676;2023-05-15T12:18:50;4.90;;;3.17;;
78774;SDS011;68119;43.398;3.676;2023-05-15T12:21:19;6.60;;;3.47;;
78774;SDS011;68119;43.398;3.676;2023-05-15T12:23:51;7.40;;;3.80;;
78774;SDS011;68119;43.398;3.676;2023-05-15T12:26:19;5.60;;;4.00;;
78774;SDS011;68119;43.398;3.676;2023-05-15T12:28:49;6.10;;;3.72;;
78774;SDS011;68119;43.398;3.676;2023-05-15T12:31:15;8.18;;;3.53;;
78774;SDS011;68119;43.398;3.676;2023-05-15T12:33:43;5.30;;;3.15;;
78774;SDS011;68119;43.398;3.676;2023-05-15T12:36:12;11.63;;;3.95;;
78774;SDS011;68119;43.398;3.676;2023-05-15T12:38:41;6.93;;;3.60;;
78774;SDS011;68119;43.398;3.676;2023-05-15T12:41:13;10.05;;;3.83;;
78774;SDS011;68119;43.398;3.676;2023-05-15T12:43:44;7.68;;;3.80;;
78774;SDS011;68119;43.398;3.676;2023-05-15T12:46:12;9.70;;;3.80;;
78774;SDS011;68119;43.398;3.676;2023-05-15T12:48:41;5.25;;;3.60;;
78774;SDS011;68119;43.398;3.676;2023-05-15T12:51:08;6.63;;;3.60;;
78774;SDS011;68119;43.398;3.676;2023-05-15T12:53:37;7.88;;;3.35;;
78774;SDS011;68119;43.398;3.676;2023-05-15T12:56:07;8.68;;;3.78;;
78774;SDS011;68119;43.398;3.676;2023-05-15T12:58:39;9.10;;;3.67;;
78774;SDS011;68119;43.398;3.676;2023-05-15T13:01:05;6.53;;;3.60;;
78774;SDS011;68119;43.398;3.676;2023-05-15T13:03:34;6.53;;;3.45;;
78774;SDS011;68119;43.398;3.676;2023-05-15T13:06:01;6.80;;;3.55;;
78774;SDS011;68119;43.398;3.676;2023-05-15T13:08:30;7.00;;;3.65;;
78774;SDS011;68119;43.398;3.676;2023-05-15T13:10:57;7.15;;;3.80;;
78774;SDS011;68119;43.398;3.676;2023-05-15T13:13:46;7.95;;;3.50;;
78774;SDS011;68119;43.398;3.676;2023-05-15T13:16:28;6.35;;;3.20;;
78774;SDS011;68119;43.398;3.676;2023-05-15T13:18:54;5.63;;;3.60;;
78774;SDS011;68119;43.398;3.676;2023-05-15T13:21:22;7.20;;;3.40;;
78774;SDS011;68119;43.398;3.676;2023-05-15T13:23:53;6.78;;;3.60;;
78774;SDS011;68119;43.398;3.676;2023-05-15T13:26:19;5.68;;;3.50;;
78774;SDS011;68119;43.398;3.676;2023-05-15T13:28:48;10.60;;;3.50;;
78774;SDS011;68119;43.398;3.676;2023-05-15T13:31:15;6.30;;;3.25;;
78774;SDS011;68119;43.398;3.676;2023-05-15T13:33:41;5.95;;;3.50;;
78774;SDS011;68119;43.398;3.676;2023-05-15T13:36:10;8.32;;;3.40;;
78774;SDS011;68119;43.398;3.676;2023-05-15T13:38:38;8.68;;;3.50;;
78774;SDS011;68119;43.398;3.676;2023-05-15T13:41:04;8.02;;;3.60;;
78774;SDS011;68119;43.398;3.676;2023-05-15T13:43:35;5.47;;;3.33;;
78774;SDS011;68119;43.398;3.676;2023-05-15T13:46:01;6.00;;;3.65;;
78774;SDS011;68119;43.398;3.676;2023-05-15T13:48:30;6.25;;;3.70;;
78774;SDS011;68119;43.398;3.676;2023-05-15T13:50:56;6.00;;;3.40;;
78774;SDS011;68119;43.398;3.676;2023-05-15T13:53:22;6.35;;;4.00;;
78774;SDS011;68119;43.398;3.676;2023-05-15T13:55:48;7.22;;;4.18;;
78774;SDS011;68119;43.398;3.676;2023-05-15T13:58:14;5.65;;;3.58;;
78774;SDS011;68119;43.398;3.676;2023-05-15T14:00:43;7.80;;;3.65;;
78774;SDS011;68119;43.398;3.676;2023-05-15T14:03:15;7.53;;;3.65;;
78774;SDS011;68119;43.398;3.676;2023-05-15T14:05:44;7.22;;;3.80;;
78774;SDS011;68119;43.398;3.676;2023-05-15T14:08:13;8.10;;;3.90;;
78774;SDS011;68119;43.398;3.676;2023-05-15T14:10:39;5.65;;;3.88;;
78774;SDS011;68119;43.398;3.676;2023-05-15T14:13:10;7.63;;;3.90;;
78774;SDS011;68119;43.398;3.676;2023-05-15T14:15:39;5.20;;;3.63;;
78774;SDS011;68119;43.398;3.676;2023-05-15T14:18:08;7.60;;;3.60;;
78774;SDS011;68119;43.398;3.676;2023-05-15T14:20:34;7.38;;;4.00;;
78774;SDS011;68119;43.398;3.676;2023-05-15T14:23:00;6.70;;;4.00;;
78774;SDS011;68119;43.398;3.676;2023-05-15T14:25:32;7.53;;;4.53;;
78774;SDS011;68119;43.398;3.676;2023-05-15T14:28:01;6.00;;;3.55;;
78774;SDS011;68119;43.398;3.676;2023-05-15T14:30:29;6.00;;;3.63;;
78774;SDS011;68119;43.398;3.676;2023-05-15T14:32:58;7.10;;;3.45;;
78774;SDS011;68119;43.398;3.676;2023-05-15T14:35:27;6.65;;;3.60;;
78774;SDS011;68119;43.398;3.676;2023-05-15T14:37:57;6.10;;;3.42;;
78774;SDS011;68119;43.398;3.676;2023-05-15T14:40:26;6.28;;;3.78;;
78774;SDS011;68119;43.398;3.676;2023-05-15T14:42:53;7.03;;;3.28;;
78774;SDS011;68119;43.398;3.676;2023-05-15T14:45:22;7.88;;;3.38;;
78774;SDS011;68119;43.398;3.676;2023-05-15T14:47:51;5.07;;;3.40;;
78774;SDS011;68119;43.398;3.676;2023-05-15T14:50:17;7.10;;;3.55;;
78774;SDS011;68119;43.398;3.676;2023-05-15T14:52:46;5.60;;;3.80;;
78774;SDS011;68119;43.398;3.676;2023-05-15T14:55:18;5.82;;;3.70;;
78774;SDS011;68119;43.398;3.676;2023-05-15T14:57:49;5.95;;;3.90;;
78774;SDS011;68119;43.398;3.676;2023-05-15T15:00:19;7.15;;;3.78;;
78774;SDS011;68119;43.398;3.676;2023-05-15T15:02:50;7.43;;;3.60;;
78774;SDS011;68119;43.398;3.676;2023-05-15T15:05:25;5.28;;;3.75;;
78774;SDS011;68119;43.398;3.676;2023-05-15T15:10:26;5.18;;;3.72;;
78774;SDS011;68119;43.398;3.676;2023-05-15T15:13:01;6.78;;;3.78;;
78774;SDS011;68119;43.398;3.676;2023-05-15T15:15:32;6.03;;;3.80;;
78774;SDS011;68119;43.398;3.676;2023-05-15T15:18:01;6.38;;;3.90;;
78774;SDS011;68119;43.398;3.676;2023-05-15T15:20:27;5.80;;;3.53;;
78774;SDS011;68119;43.398;3.676;2023-05-15T15:22:58;5.60;;;3.45;;
78774;SDS011;68119;43.398;3.676;2023-05-15T15:25:31;5.57;;;3.47;;
78774;SDS011;68119;43.398;3.676;2023-05-15T15:27:57;4.82;;;3.72;;
78774;SDS011;68119;43.398;3.676;2023-05-15T15:30:27;7.30;;;3.67;;
78774;SDS011;68119;43.398;3.676;2023-05-15T15:32:57;5.53;;;3.92;;
78774;SDS011;68119;43.398;3.676;2023-05-15T15:35:26;5.07;;;3.55;;
78774;SDS011;68119;43.398;3.676;2023-05-15T15:37:55;6.22;;;3.53;;